Time;durP1;ratioP1;P1;durP2;ratioP2;P2;SDS_P1;SDS_P2;PMS_P1;PMS_P2;Temp;Humidity;BMP_temperature;BMP_pressure;BME280_temperature;BME280_humidity;BME280_pressure;Samples;Min_cycle;Max_cycle;Signal;HPM_P1;HPM_P2
2023/05/25 00:05:52;;;;;;;18.90;5.40;;;;;;;;;;106197;1269;22561;-76
2023/05/25 00:08:56;;;;;;;14.10;4.40;;;;;;;;;;103571;1295;548025;-80
2023/05/25 00:15:59;;;;;;;12.30;5.10;;;;;;;;;;106196;1288;25466;-76
2023/05/25 00:18:25;;;;;;;13.80;5.60;;;;;;;;;;106068;1288;22552;-79
2023/05/25 00:20:54;;;;;;;13.50;5.30;;;;;;;;;;106001;1280;24248;-78
2023/05/25 00:23:20;;;;;;;12.80;5.80;;;;;;;;;;104059;1285;3131502;-75
2023/05/25 00:25:46;;;;;;;14.90;5.20;;;;;;;;;;106155;1285;22498;-78
2023/05/25 00:28:15;;;;;;;13.60;5.70;;;;;;;;;;106136;1285;22593;-82
2023/05/25 00:30:42;;;;;;;15.50;5.80;;;;;;;;;;106075;1269;23124;-84
2023/05/25 00:33:10;;;;;;;15.20;6.00;;;;;;;;;;106373;1285;24241;-81
2023/05/25 00:39:27;;;;;;;12.40;5.30;;;;;;;;;;106684;1260;24267;-78
2023/05/25 00:41:55;;;;;;;11.80;5.10;;;;;;;;;;106453;1281;22543;-79
2023/05/25 00:44:26;;;;;;;14.90;4.80;;;;;;;;;;106738;1281;25363;-81
2023/05/25 00:47:02;;;;;;;;;;;;;;;;;;;;;
2023/05/25 00:49:34;;;;;;;13.50;5.10;;;;;;;;;;106528;1263;22533;-79
2023/05/25 00:52:00;;;;;;;16.80;5.80;;;;;;;;;;106513;1281;24200;-77
2023/05/25 00:54:26;;;;;;;16.50;6.20;;;;;;;;;;106446;1281;23842;-80
2023/05/25 00:56:52;;;;;;;12.30;5.60;;;;;;;;;;106904;1276;22582;-77
2023/05/25 00:59:34;;;;;;;14.80;5.60;;;;;;;;;;106910;1277;25408;-78
2023/05/25 01:02:05;;;;;;;10.80;4.50;;;;;;;;;;106869;1257;25461;-79
2023/05/25 01:04:33;;;;;;;12.00;4.90;;;;;;;;;;106882;1272;22579;-79
2023/05/25 01:07:00;;;;;;;14.80;5.20;;;;;;;;;;106851;1276;22537;-79
2023/05/25 01:09:26;;;;;;;14.40;5.60;;;;;;;;;;106924;1277;24189;-84
2023/05/25 01:11:54;;;;;;;13.80;6.00;;;;;;;;;;106899;1266;24212;-79
2023/05/25 01:14:23;;;;;;;13.50;5.70;;;;;;;;;;106850;1276;24428;-84
2023/05/25 01:17:10;;;;;;;12.40;4.90;;;;;;;;;;106942;1277;22589;-83
2023/05/25 01:19:40;;;;;;;14.70;4.20;;;;;;;;;;106901;1273;22523;-84
2023/05/25 01:22:06;;;;;;;14.80;5.50;;;;;;;;;;106848;1270;24384;-78
2023/05/25 01:24:39;;;;;;;16.10;6.20;;;;;;;;;;106908;1276;22540;-83
2023/05/25 01:27:15;;;;;;;15.80;6.00;;;;;;;;;;106844;1276;22493;-77
2023/05/25 01:29:43;;;;;;;15.10;5.70;;;;;;;;;;106765;1276;25324;-77
2023/05/25 01:32:10;;;;;;;13.20;5.30;;;;;;;;;;106801;1264;22635;-81
2023/05/25 01:34:38;;;;;;;10.70;4.60;;;;;;;;;;106904;1278;22763;-84
2023/05/25 01:37:08;;;;;;;16.60;5.50;;;;;;;;;;106703;1278;22536;-80
2023/05/25 01:39:38;;;;;;;18.00;6.30;;;;;;;;;;106820;1278;24202;-84
2023/05/25 01:42:04;;;;;;;13.60;5.70;;;;;;;;;;106841;1256;22537;-79
2023/05/25 01:44:30;;;;;;;15.60;5.60;;;;;;;;;;106940;1276;25324;-79
2023/05/25 01:47:01;;;;;;;16.80;5.80;;;;;;;;;;106822;1278;22531;-79
2023/05/25 01:49:33;;;;;;;17.20;5.50;;;;;;;;;;106702;1278;23792;-79
2023/05/25 01:52:06;;;;;;;13.50;4.60;;;;;;;;;;106826;1278;25311;-79
2023/05/25 01:58:07;;;;;;;16.70;5.60;;;;;;;;;;106928;1278;24364;-84
2023/05/25 02:04:28;;;;;;;13.70;5.10;;;;;;;;;;106452;1284;25316;-78
2023/05/25 02:06:57;;;;;;;13.70;4.70;;;;;;;;;;106384;1284;22682;-81
2023/05/25 02:09:24;;;;;;;12.80;4.50;;;;;;;;;;106372;1284;23921;-83
2023/05/25 02:11:52;;;;;;;16.50;4.50;;;;;;;;;;106370;1284;24227;-81
2023/05/25 02:14:19;;;;;;;16.20;4.60;;;;;;;;;;106384;1265;22540;-80
2023/05/25 02:22:31;;;;;;;13.20;5.00;;;;;;;;;;107073;1278;23893;-82
2023/05/25 02:24:58;;;;;;;12.70;5.20;;;;;;;;;;106772;1264;22558;-78
2023/05/25 02:27:44;;;;;;;13.70;5.10;;;;;;;;;;106887;1277;25265;-82
2023/05/25 02:30:30;;;;;;;15.00;5.00;;;;;;;;;;106969;1278;22533;-79
2023/05/25 02:38:11;;;;;;;15.60;4.90;;;;;;;;;;103676;1298;545065;-84
2023/05/25 02:42:02;;;;;;;14.00;3.90;;;;;;;;;;103285;1320;22586;-79
2023/05/25 02:44:37;;;;;;;14.90;4.20;;;;;;;;;;105752;1294;22546;-79
2023/05/25 02:47:37;;;;;;;;;;;;;;;;;;;;;
2023/05/25 02:50:42;;;;;;;14.50;5.10;;;;;;;;;;102920;1297;3201939;-78
2023/05/25 02:53:14;;;;;;;17.80;5.10;;;;;;;;;;105635;1297;25428;-79
2023/05/25 02:56:09;;;;;;;13.80;5.10;;;;;;;;;;105251;1297;22559;-78
2023/05/25 02:59:20;;;;;;;11.90;4.80;;;;;;;;;;105450;1279;24324;-83
2023/05/25 03:04:27;;;;;;;16.90;7.20;;;;;;;;;;106017;1287;25468;-79
2023/05/25 03:07:38;;;;;;;15.70;6.50;;;;;;;;;;105930;1272;22599;-83
2023/05/25 03:10:11;;;;;;;19.60;6.20;;;;;;;;;;105914;1293;25533;-82
2023/05/25 03:19:02;;;;;;;16.70;6.50;;;;;;;;;;106558;1265;24387;-81
2023/05/25 03:22:50;;;;;;;16.10;7.30;;;;;;;;;;103973;1292;545355;-80
2023/05/25 03:25:18;;;;;;;13.90;7.10;;;;;;;;;;106314;1286;22533;-79
2023/05/25 03:27:50;;;;;;;13.00;7.10;;;;;;;;;;106210;1286;25449;-80
2023/05/25 03:30:21;;;;;;;15.30;7.70;;;;;;;;;;106055;1286;22583;-79
2023/05/25 03:32:48;;;;;;;13.50;6.70;;;;;;;;;;106241;1283;22523;-83
2023/05/25 03:35:15;;;;;;;17.70;6.70;;;;;;;;;;106090;1285;25325;-80
2023/05/25 03:37:42;;;;;;;14.40;6.00;;;;;;;;;;103951;1286;24234;-83
2023/05/25 03:40:10;;;;;;;12.70;5.40;;;;;;;;;;106038;1286;25414;-78
2023/05/25 03:42:37;;;;;;;12.90;5.60;;;;;;;;;;106425;1269;25290;-82
2023/05/25 03:45:08;;;;;;;12.70;6.60;;;;;;;;;;106471;1286;22530;-81
2023/05/25 03:47:36;;;;;;;13.40;5.90;;;;;;;;;;106440;1286;24170;-80
2023/05/25 03:50:05;;;;;;;15.40;6.30;;;;;;;;;;107136;1276;23633;-84
2023/05/25 03:52:33;;;;;;;14.10;6.20;;;;;;;;;;106865;1276;22757;-83
2023/05/25 03:55:04;;;;;;;13.10;6.50;;;;;;;;;;107107;1276;24227;-84
2023/05/25 03:57:56;;;;;;;16.60;6.20;;;;;;;;;;107075;1276;24186;-81
2023/05/25 04:00:26;;;;;;;15.40;5.80;;;;;;;;;;106988;1276;22484;-81
2023/05/25 04:02:54;;;;;;;14.70;4.20;;;;;;;;;;106983;1267;24457;-80
2023/05/25 04:05:25;;;;;;;12.20;4.70;;;;;;;;;;106902;1276;22730;-81
2023/05/25 04:11:34;;;;;;;13.70;4.60;;;;;;;;;;107180;1276;22661;-85
2023/05/25 04:14:02;;;;;;;14.20;4.30;;;;;;;;;;106996;1266;22620;-83
2023/05/25 04:16:31;;;;;;;14.20;4.90;;;;;;;;;;106931;1275;22524;-77
2023/05/25 04:18:58;;;;;;;10.30;3.80;;;;;;;;;;107019;1275;25278;-79
2023/05/25 04:21:25;;;;;;;13.40;4.10;;;;;;;;;;106908;1275;22620;-79
2023/05/25 04:23:52;;;;;;;11.30;4.80;;;;;;;;;;106944;1263;25360;-79
2023/05/25 04:26:19;;;;;;;11.10;4.00;;;;;;;;;;106849;1276;22649;-78
2023/05/25 04:28:47;;;;;;;14.20;4.20;;;;;;;;;;106889;1276;24202;-79
2023/05/25 04:31:25;;;;;;;15.50;4.60;;;;;;;;;;107012;1276;24314;-80
2023/05/25 04:37:17;;;;;;;12.50;4.90;;;;;;;;;;107018;1266;25318;-83
2023/05/25 04:39:45;;;;;;;12.90;4.60;;;;;;;;;;107089;1276;24253;-84
2023/05/25 04:42:12;;;;;;;12.70;4.90;;;;;;;;;;106898;1276;22599;-86
2023/05/25 04:51:06;;;;;;;16.40;4.50;;;;;;;;;;106612;1281;22530;-80
2023/05/25 04:53:34;;;;;;;18.20;4.60;;;;;;;;;;106484;1281;25242;-79
2023/05/25 04:56:05;;;;;;;22.00;4.70;;;;;;;;;;106490;1281;24374;-84
2023/05/25 04:58:32;;;;;;;20.50;5.00;;;;;;;;;;106517;1273;22531;-81
2023/05/25 05:00:59;;;;;;;20.70;5.30;;;;;;;;;;106586;1279;22543;-84
2023/05/25 05:03:26;;;;;;;19.40;5.00;;;;;;;;;;106778;1277;22525;-84
2023/05/25 05:05:53;;;;;;;18.30;4.80;;;;;;;;;;106747;1277;24249;-83
2023/05/25 05:09:04;;;;;;;11.70;4.30;;;;;;;;;;107018;1265;22776;-79
2023/05/25 05:11:30;;;;;;;12.20;3.30;;;;;;;;;;107229;1276;22538;-79
2023/05/25 05:13:58;;;;;;;13.40;4.40;;;;;;;;;;106880;1276;22527;-82
2023/05/25 05:16:25;;;;;;;13.80;4.80;;;;;;;;;;106984;1276;22643;-79
2023/05/25 05:21:24;;;;;;;14.40;4.80;;;;;;;;;;107039;1277;22648;-81
2023/05/25 05:23:51;;;;;;;15.30;4.50;;;;;;;;;;106884;1276;25271;-84
2023/05/25 05:26:20;;;;;;;12.10;4.50;;;;;;;;;;106719;1276;22516;-76
2023/05/25 05:28:47;;;;;;;12.20;4.10;;;;;;;;;;106852;1266;25487;-80
2023/05/25 05:31:16;;;;;;;11.90;4.20;;;;;;;;;;106910;1276;24262;-81
2023/05/25 05:33:46;;;;;;;14.00;4.50;;;;;;;;;;106973;1276;25262;-84
2023/05/25 05:36:12;;;;;;;10.60;3.60;;;;;;;;;;106969;1276;22528;-81
2023/05/25 05:38:40;;;;;;;12.20;4.20;;;;;;;;;;106960;1255;22520;-82
2023/05/25 05:45:03;;;;;;;11.90;4.50;;;;;;;;;;106462;1281;22636;-81
2023/05/25 05:47:30;;;;;;;13.40;4.50;;;;;;;;;;106545;1276;22528;-79
2023/05/25 05:49:57;;;;;;;15.30;4.30;;;;;;;;;;107177;1275;23866;-80
2023/05/25 05:52:25;;;;;;;12.10;4.50;;;;;;;;;;106966;1276;22843;-78
2023/05/25 05:54:51;;;;;;;12.30;4.10;;;;;;;;;;107045;1275;22635;-80
2023/05/25 05:57:22;;;;;;;13.30;4.40;;;;;;;;;;106965;1275;22536;-79
2023/05/25 05:59:49;;;;;;;12.10;4.50;;;;;;;;;;106890;1259;22527;-81
2023/05/25 06:02:16;;;;;;;13.30;4.60;;;;;;;;;;106954;1275;22513;-82
2023/05/25 06:04:43;;;;;;;13.50;4.40;;;;;;;;;;106900;1275;25227;-83
2023/05/25 06:07:13;;;;;;;10.50;3.70;;;;;;;;;;107135;1275;22514;-84
2023/05/25 06:14:13;;;;;;;13.10;4.70;;;;;;;;;;103686;1298;544823;-84
2023/05/25 06:16:42;;;;;;;12.30;4.30;;;;;;;;;;106021;1289;25637;-79
2023/05/25 06:23:04;;;;;;;12.30;4.10;;;;;;;;;;106334;1289;23918;-81
2023/05/25 06:28:09;;;;;;;13.70;5.00;;;;;;;;;;103892;1292;545962;-78
2023/05/25 06:30:35;;;;;;;14.40;5.10;;;;;;;;;;106113;1286;22545;-80
2023/05/25 06:33:04;;;;;;;14.50;5.20;;;;;;;;;;106183;1282;25227;-83
2023/05/25 06:53:34;;;;;;;13.70;4.70;;;;;;;;;;103972;1289;546215;-86
2023/05/25 07:07:40;;;;;;;12.80;5.00;;;;;;;;;;104731;1285;550009;-82
2023/05/25 07:10:26;;;;;;;12.10;3.50;;;;;;;;;;103728;1294;544945;-83
2023/05/25 07:12:53;;;;;;;9.60;3.90;;;;;;;;;;106145;1273;22574;-80
2023/05/25 07:15:23;;;;;;;10.10;3.40;;;;;;;;;;106307;1288;22835;-80
2023/05/25 07:17:55;;;;;;;11.60;3.70;;;;;;;;;;106064;1288;22619;-81
2023/05/25 07:20:26;;;;;;;12.10;4.30;;;;;;;;;;106843;1277;22536;-83
2023/05/25 07:26:30;;;;;;;12.90;4.00;;;;;;;;;;104881;1275;25480;-80
2023/05/25 07:29:11;;;;;;;;;;;;;;;;;;;;;
2023/05/25 07:32:37;;;;;;;11.20;4.40;;;;;;;;;;107076;1256;22650;-84
2023/05/25 07:35:04;;;;;;;12.00;4.30;;;;;;;;;;106933;1275;22577;-80
2023/05/25 07:41:32;;;;;;;10.60;3.90;;;;;;;;;;107198;1276;22636;-83
2023/05/25 07:47:10;;;;;;;10.40;4.10;;;;;;;;;;103800;1295;544998;-82
2023/05/25 07:49:36;;;;;;;11.10;3.80;;;;;;;;;;106442;1287;25593;-79
2023/05/25 07:52:04;;;;;;;11.80;3.90;;;;;;;;;;106305;1287;24302;-84
2023/05/25 07:54:31;;;;;;;12.10;4.00;;;;;;;;;;106404;1287;22565;-79
2023/05/25 07:56:58;;;;;;;9.10;3.60;;;;;;;;;;106330;1269;22966;-86
2023/05/25 07:59:25;;;;;;;11.90;4.90;;;;;;;;;;106162;1287;24226;-81
2023/05/25 08:01:51;;;;;;;11.20;4.40;;;;;;;;;;102626;1284;5202627;-77
2023/05/25 08:04:18;;;;;;;11.70;3.90;;;;;;;;;;106405;1285;22553;-84
2023/05/25 08:06:45;;;;;;;14.60;4.30;;;;;;;;;;106374;1267;22536;-83
2023/05/25 08:09:12;;;;;;;14.60;5.10;;;;;;;;;;106407;1284;24196;-79
2023/05/25 08:11:43;;;;;;;11.40;4.40;;;;;;;;;;106414;1284;23880;-79
2023/05/25 08:14:25;;;;;;;11.00;4.60;;;;;;;;;;106398;1284;22530;-78
2023/05/25 08:16:52;;;;;;;12.20;4.70;;;;;;;;;;106413;1266;22507;-81
2023/05/25 08:19:19;;;;;;;13.40;5.70;;;;;;;;;;106457;1284;22565;-83
2023/05/25 08:21:47;;;;;;;11.70;3.90;;;;;;;;;;106506;1284;23762;-86
2023/05/25 08:24:14;;;;;;;14.00;4.50;;;;;;;;;;106592;1284;24303;-82
2023/05/25 08:26:42;;;;;;;11.50;4.40;;;;;;;;;;106405;1264;22535;-78
2023/05/25 08:29:11;;;;;;;12.00;4.40;;;;;;;;;;106421;1284;22533;-81
2023/05/25 08:31:38;;;;;;;13.70;4.20;;;;;;;;;;106421;1284;25473;-86
2023/05/25 08:34:04;;;;;;;11.00;4.10;;;;;;;;;;106400;1285;22541;-83
2023/05/25 08:36:34;;;;;;;10.60;4.50;;;;;;;;;;106381;1284;22737;-85
2023/05/25 08:39:02;;;;;;;10.30;3.90;;;;;;;;;;106411;1266;22749;-78
2023/05/25 08:41:29;;;;;;;11.10;4.40;;;;;;;;;;106417;1284;25239;-84
2023/05/25 08:43:56;;;;;;;15.50;7.00;;;;;;;;;;106379;1276;22553;-89
2023/05/25 08:52:57;;;;;;;9.90;4.30;;;;;;;;;;106419;1285;25456;-82
2023/05/25 08:55:25;;;;;;;10.40;4.10;;;;;;;;;;106291;1285;22533;-84
2023/05/25 08:57:52;;;;;;;12.00;4.40;;;;;;;;;;106448;1285;25278;-85
2023/05/25 09:00:24;;;;;;;10.10;3.90;;;;;;;;;;106362;1269;22541;-87
2023/05/25 09:03:02;;;;;;;8.70;4.00;;;;;;;;;;106368;1285;25344;-79
2023/05/25 09:05:29;;;;;;;9.70;4.00;;;;;;;;;;106066;1287;24245;-85
2023/05/25 09:07:57;;;;;;;9.50;3.90;;;;;;;;;;105992;1287;25243;-78
2023/05/25 09:10:25;;;;;;;9.50;4.40;;;;;;;;;;106326;1267;22621;-79
2023/05/25 09:12:52;;;;;;;9.30;3.90;;;;;;;;;;106377;1286;22641;-76
2023/05/25 09:15:22;;;;;;;8.70;3.70;;;;;;;;;;106339;1273;22537;-83
2023/05/25 09:17:49;;;;;;;9.80;3.90;;;;;;;;;;106337;1286;25290;-81
2023/05/25 09:20:17;;;;;;;11.90;4.90;;;;;;;;;;106288;1286;22552;-82
2023/05/25 09:22:44;;;;;;;11.20;4.10;;;;;;;;;;107092;1276;23894;-79
2023/05/25 09:25:12;;;;;;;12.00;4.10;;;;;;;;;;107001;1276;24272;-78
2023/05/25 09:27:40;;;;;;;9.50;4.30;;;;;;;;;;107283;1273;22524;-85
2023/05/25 09:30:07;;;;;;;10.30;4.10;;;;;;;;;;107136;1256;22508;-77
2023/05/25 09:32:34;;;;;;;10.20;4.30;;;;;;;;;;107146;1270;21732;-80
2023/05/25 09:35:11;;;;;;;12.10;4.30;;;;;;;;;;107132;1274;24242;-80
2023/05/25 09:37:39;;;;;;;12.60;4.30;;;;;;;;;;107129;1274;22527;-85
2023/05/25 09:40:07;;;;;;;9.40;4.10;;;;;;;;;;107365;1253;22518;-82
2023/05/25 09:42:35;;;;;;;9.90;4.00;;;;;;;;;;107250;1273;22518;-81
2023/05/25 09:45:02;;;;;;;8.30;4.00;;;;;;;;;;107106;1274;22640;-83
2023/05/25 09:47:29;;;;;;;16.30;6.20;;;;;;;;;;107133;1273;25331;-76
2023/05/25 09:49:56;;;;;;;8.40;3.80;;;;;;;;;;107168;1255;25230;-81
2023/05/25 09:52:23;;;;;;;8.80;4.10;;;;;;;;;;107223;1274;25353;-79
2023/05/25 09:54:51;;;;;;;8.40;3.90;;;;;;;;;;106990;1252;22650;-84
2023/05/25 09:57:19;;;;;;;8.80;4.20;;;;;;;;;;106870;1273;22483;-84
2023/05/25 09:59:46;;;;;;;9.90;3.90;;;;;;;;;;107107;1251;23898;-85
2023/05/25 10:02:16;;;;;;;10.10;4.20;;;;;;;;;;107183;1273;22609;-81
2023/05/25 10:04:52;;;;;;;9.40;4.00;;;;;;;;;;107241;1274;23127;-79
2023/05/25 10:07:22;;;;;;;9.30;3.90;;;;;;;;;;107341;1272;22537;-86
2023/05/25 10:09:51;;;;;;;9.80;4.20;;;;;;;;;;106857;1275;22647;-85
2023/05/25 10:12:46;;;;;;;13.20;4.80;;;;;;;;;;107269;1267;25383;-81
2023/05/25 10:15:22;;;;;;;9.10;4.70;;;;;;;;;;106824;1273;25201;-81
2023/05/25 10:18:27;;;;;;;9.80;4.70;;;;;;;;;;107106;1273;22557;-80
2023/05/25 10:21:02;;;;;;;10.60;4.90;;;;;;;;;;107286;1256;24245;-78
2023/05/25 10:23:34;;;;;;;11.00;5.40;;;;;;;;;;106996;1267;22575;-82
2023/05/25 10:26:02;;;;;;;10.80;5.10;;;;;;;;;;107007;1252;22728;-79
2023/05/25 10:35:37;;;;;;;12.10;5.90;;;;;;;;;;103769;1292;544786;-83
2023/05/25 10:38:04;;;;;;;10.70;6.00;;;;;;;;;;106089;1288;26499;-79
2023/05/25 10:40:33;;;;;;;9.80;5.40;;;;;;;;;;106108;1266;24278;-85
2023/05/25 10:43:01;;;;;;;12.70;5.80;;;;;;;;;;106168;1288;24376;-78
2023/05/25 10:45:28;;;;;;;10.40;5.20;;;;;;;;;;105950;1272;24256;-82
2023/05/25 10:47:55;;;;;;;13.20;5.60;;;;;;;;;;106023;1290;25305;-80
2023/05/25 10:50:25;;;;;;;10.70;5.10;;;;;;;;;;103760;1288;3193734;-81
2023/05/25 10:53:02;;;;;;;12.60;5.90;;;;;;;;;;106059;1287;26660;-81
2023/05/25 10:59:27;;;;;;;11.00;6.40;;;;;;;;;;105991;1271;24255;-77
2023/05/25 11:01:53;;;;;;;9.30;4.80;;;;;;;;;;105876;1290;24233;-79
2023/05/25 11:07:04;;;;;;;14.50;5.40;;;;;;;;;;106129;1266;22548;-78
2023/05/25 11:09:31;;;;;;;9.90;4.80;;;;;;;;;;106020;1286;22552;-77
2023/05/25 11:11:58;;;;;;;10.90;5.30;;;;;;;;;;106188;1286;22536;-81
2023/05/25 11:14:29;;;;;;;12.70;5.00;;;;;;;;;;106068;1286;25588;-77
2023/05/25 11:17:18;;;;;;;13.20;5.10;;;;;;;;;;106265;1286;25237;-81
2023/05/25 11:19:50;;;;;;;9.50;5.20;;;;;;;;;;106473;1266;22856;-77
2023/05/25 11:22:20;;;;;;;11.20;5.00;;;;;;;;;;106210;1285;23916;-81
2023/05/25 11:24:49;;;;;;;10.80;5.00;;;;;;;;;;106516;1282;22540;-77
2023/05/25 11:27:23;;;;;;;11.90;4.90;;;;;;;;;;106594;1279;26686;-79
2023/05/25 11:29:51;;;;;;;10.30;4.90;;;;;;;;;;106491;1266;24334;-84
2023/05/25 11:32:19;;;;;;;10.70;5.00;;;;;;;;;;106407;1283;22606;-79
2023/05/25 11:34:46;;;;;;;12.30;5.80;;;;;;;;;;106416;1283;24263;-77
2023/05/25 11:37:19;;;;;;;12.20;5.40;;;;;;;;;;106404;1283;24046;-77
2023/05/25 11:39:48;;;;;;;12.90;5.20;;;;;;;;;;106374;1274;25527;-82
2023/05/25 11:42:16;;;;;;;12.40;5.20;;;;;;;;;;106509;1282;22532;-76
2023/05/25 11:44:43;;;;;;;12.90;5.30;;;;;;;;;;106533;1282;24327;-79
2023/05/25 11:47:17;;;;;;;9.40;4.50;;;;;;;;;;106530;1282;22530;-87
2023/05/25 11:49:58;;;;;;;12.40;5.60;;;;;;;;;;106528;1266;25234;-77
2023/05/25 11:52:26;;;;;;;10.80;5.30;;;;;;;;;;106696;1281;22578;-77
2023/05/25 11:54:53;;;;;;;13.30;4.90;;;;;;;;;;106346;1269;22542;-77
2023/05/25 11:57:24;;;;;;;13.90;5.60;;;;;;;;;;106345;1281;25251;-81
2023/05/25 11:59:54;;;;;;;13.30;5.70;;;;;;;;;;106374;1281;23922;-83
2023/05/25 12:02:21;;;;;;;12.80;5.50;;;;;;;;;;106443;1281;24236;-78
2023/05/25 12:04:51;;;;;;;10.10;5.10;;;;;;;;;;106451;1281;22503;-82
2023/05/25 12:07:18;;;;;;;12.40;4.40;;;;;;;;;;106338;1281;22652;-74
2023/05/25 12:09:45;;;;;;;12.30;5.70;;;;;;;;;;106527;1259;22534;-78
2023/05/25 12:12:14;;;;;;;8.80;4.60;;;;;;;;;;106481;1281;22554;-86
2023/05/25 12:14:48;;;;;;;10.40;5.20;;;;;;;;;;106539;1281;26500;-80
2023/05/25 12:17:15;;;;;;;9.90;4.80;;;;;;;;;;106491;1266;22639;-82
2023/05/25 12:19:43;;;;;;;10.70;4.40;;;;;;;;;;106572;1263;23566;-79
2023/05/25 12:22:11;;;;;;;11.10;4.70;;;;;;;;;;106721;1281;25293;-82
2023/05/25 12:24:42;;;;;;;10.90;5.20;;;;;;;;;;106711;1281;24202;-81
2023/05/25 12:27:16;;;;;;;11.30;5.00;;;;;;;;;;106747;1281;25239;-82
2023/05/25 12:29:46;;;;;;;10.70;4.80;;;;;;;;;;106491;1276;25369;-81
2023/05/25 12:32:14;;;;;;;10.70;4.70;;;;;;;;;;106667;1281;25396;-78
2023/05/25 12:34:41;;;;;;;10.80;4.90;;;;;;;;;;106318;1281;22546;-84
2023/05/25 12:41:23;;;;;;;10.50;4.90;;;;;;;;;;106702;1263;25322;-84
2023/05/25 12:43:50;;;;;;;10.90;4.70;;;;;;;;;;106714;1281;22517;-81
2023/05/25 12:46:26;;;;;;;11.30;4.80;;;;;;;;;;106448;1282;22605;-81
2023/05/25 12:48:53;;;;;;;10.90;4.90;;;;;;;;;;106709;1272;22541;-77
2023/05/25 12:51:20;;;;;;;12.00;5.00;;;;;;;;;;106539;1276;22533;-78
2023/05/25 12:53:50;;;;;;;11.40;5.40;;;;;;;;;;106564;1275;22536;-79
2023/05/25 12:56:21;;;;;;;11.30;4.70;;;;;;;;;;106491;1282;25580;-80
2023/05/25 12:58:48;;;;;;;13.00;5.00;;;;;;;;;;106464;1282;22558;-79
2023/05/25 13:01:18;;;;;;;12.40;4.80;;;;;;;;;;106380;1282;22531;-76
2023/05/25 13:03:45;;;;;;;10.80;4.70;;;;;;;;;;106470;1282;25786;-79
2023/05/25 13:06:15;;;;;;;10.60;4.60;;;;;;;;;;106518;1282;25506;-81
2023/05/25 13:08:42;;;;;;;9.40;4.60;;;;;;;;;;107058;1275;22526;-80
2023/05/25 13:11:09;;;;;;;9.30;5.00;;;;;;;;;;106832;1267;25210;-79
2023/05/25 13:13:36;;;;;;;10.00;4.70;;;;;;;;;;106847;1275;25496;-79
2023/05/25 13:16:03;;;;;;;11.80;4.50;;;;;;;;;;107054;1275;24240;-86
2023/05/25 13:18:30;;;;;;;10.00;4.80;;;;;;;;;;106904;1275;24215;-74
2023/05/25 13:20:57;;;;;;;9.20;4.30;;;;;;;;;;106893;1260;25280;-77
2023/05/25 13:23:44;;;;;;;8.80;4.20;;;;;;;;;;106990;1275;24315;-85
2023/05/25 13:26:11;;;;;;;11.60;4.30;;;;;;;;;;106986;1275;22775;-81
2023/05/25 13:28:38;;;;;;;10.00;4.30;;;;;;;;;;106888;1275;22530;-86
2023/05/25 13:31:05;;;;;;;10.80;4.40;;;;;;;;;;106870;1260;22536;-79
2023/05/25 13:33:31;;;;;;;11.80;4.70;;;;;;;;;;106881;1275;22527;-86
2023/05/25 13:36:06;;;;;;;9.10;4.60;;;;;;;;;;107030;1275;22516;-77
2023/05/25 13:38:33;;;;;;;9.40;4.10;;;;;;;;;;106901;1275;22634;-85
2023/05/25 13:41:00;;;;;;;10.20;4.80;;;;;;;;;;107047;1259;22533;-76
2023/05/25 13:43:27;;;;;;;8.90;4.60;;;;;;;;;;106958;1276;22535;-85
2023/05/25 13:46:09;;;;;;;10.30;4.50;;;;;;;;;;106844;1276;22759;-84
2023/05/25 13:49:30;;;;;;;10.70;4.70;;;;;;;;;;106438;1283;25482;-82
2023/05/25 13:52:00;;;;;;;9.80;4.40;;;;;;;;;;106416;1282;24289;-84
2023/05/25 13:54:27;;;;;;;8.60;4.40;;;;;;;;;;106438;1282;24180;-78
2023/05/25 13:56:53;;;;;;;8.60;4.30;;;;;;;;;;106377;1282;22537;-77
2023/05/25 13:59:23;;;;;;;9.40;4.50;;;;;;;;;;106380;1282;22550;-78
2023/05/25 14:01:50;;;;;;;9.60;4.90;;;;;;;;;;106385;1274;22534;-80
2023/05/25 14:04:37;;;;;;;8.70;4.00;;;;;;;;;;106454;1282;22639;-80
2023/05/25 14:07:04;;;;;;;10.40;4.20;;;;;;;;;;106453;1282;22666;-83
2023/05/25 14:09:31;;;;;;;7.50;4.10;;;;;;;;;;106453;1282;22625;-82
2023/05/25 14:11:57;;;;;;;10.10;4.40;;;;;;;;;;106415;1263;24460;-84
2023/05/25 14:14:24;;;;;;;10.80;4.40;;;;;;;;;;106429;1282;22533;-83
2023/05/25 14:16:51;;;;;;;10.00;4.00;;;;;;;;;;106436;1282;22530;-91
2023/05/25 14:19:18;;;;;;;11.10;4.10;;;;;;;;;;106546;1275;22535;-78
2023/05/25 14:21:45;;;;;;;8.90;3.90;;;;;;;;;;106989;1257;25227;-81
2023/05/25 14:31:18;;;;;;;9.50;4.20;;;;;;;;;;106414;1282;22566;-79
2023/05/25 14:33:45;;;;;;;10.20;4.60;;;;;;;;;;106407;1266;22544;-80
2023/05/25 14:36:12;;;;;;;9.20;4.50;;;;;;;;;;106431;1282;22542;-85
2023/05/25 14:38:39;;;;;;;10.10;4.30;;;;;;;;;;106464;1282;22497;-84
2023/05/25 14:41:06;;;;;;;11.90;4.20;;;;;;;;;;106472;1282;22537;-83
2023/05/25 14:47:12;;;;;;;10.10;4.00;;;;;;;;;;106378;1283;22520;-81
2023/05/25 14:49:39;;;;;;;9.80;3.90;;;;;;;;;;106386;1283;24249;-81
2023/05/25 14:52:08;;;;;;;8.40;3.80;;;;;;;;;;106449;1261;22618;-85
2023/05/25 14:54:35;;;;;;;8.80;3.90;;;;;;;;;;106430;1279;22566;-86
2023/05/25 14:57:01;;;;;;;9.30;3.90;;;;;;;;;;106450;1282;22550;-80
2023/05/25 14:59:28;;;;;;;9.80;4.40;;;;;;;;;;106431;1282;22632;-81
2023/05/25 15:01:58;;;;;;;9.10;4.30;;;;;;;;;;106430;1282;22851;-78
2023/05/25 15:04:27;;;;;;;9.90;4.30;;;;;;;;;;106619;1276;25283;-80
2023/05/25 15:06:53;;;;;;;13.10;3.70;;;;;;;;;;106910;1276;25268;-77
2023/05/25 15:09:20;;;;;;;10.30;4.10;;;;;;;;;;106879;1268;24210;-83
2023/05/25 15:11:47;;;;;;;9.40;3.80;;;;;;;;;;106839;1276;25274;-81
2023/05/25 15:14:15;;;;;;;9.70;3.90;;;;;;;;;;107063;1257;24323;-78
2023/05/25 15:16:42;;;;;;;9.30;3.90;;;;;;;;;;107078;1275;22650;-82
2023/05/25 15:19:08;;;;;;;8.50;4.10;;;;;;;;;;107069;1275;22523;-79
2023/05/25 15:21:36;;;;;;;9.40;4.20;;;;;;;;;;107098;1275;24219;-78
2023/05/25 15:24:02;;;;;;;10.20;4.20;;;;;;;;;;107043;1259;24277;-82
2023/05/25 15:26:29;;;;;;;8.90;4.40;;;;;;;;;;107002;1276;22548;-81
2023/05/25 15:28:56;;;;;;;10.40;4.40;;;;;;;;;;106939;1276;23370;-82
2023/05/25 15:31:23;;;;;;;10.90;4.30;;;;;;;;;;106797;1276;25396;-77
2023/05/25 15:33:51;;;;;;;9.70;4.10;;;;;;;;;;106765;1267;24344;-85
2023/05/25 15:36:18;;;;;;;11.10;4.20;;;;;;;;;;106804;1275;26484;-77
2023/05/25 15:38:47;;;;;;;8.20;4.00;;;;;;;;;;106888;1275;22547;-83
2023/05/25 15:41:17;;;;;;;12.30;4.40;;;;;;;;;;106849;1275;22535;-81
2023/05/25 15:43:49;;;;;;;9.20;4.40;;;;;;;;;;106789;1275;22538;-80
2023/05/25 15:46:15;;;;;;;8.50;3.90;;;;;;;;;;106892;1276;24199;-84
2023/05/25 15:48:42;;;;;;;10.30;4.70;;;;;;;;;;106870;1276;22535;-82
2023/05/25 15:51:08;;;;;;;11.00;4.20;;;;;;;;;;106966;1276;24228;-77
2023/05/25 15:53:35;;;;;;;9.90;4.40;;;;;;;;;;107039;1266;24253;-83
2023/05/25 15:56:02;;;;;;;10.10;4.40;;;;;;;;;;106863;1275;22531;-80
2023/05/25 15:58:30;;;;;;;11.60;4.60;;;;;;;;;;106914;1275;24199;-80
2023/05/25 16:00:57;;;;;;;9.80;3.80;;;;;;;;;;107090;1275;25278;-77
2023/05/25 16:03:23;;;;;;;8.10;4.20;;;;;;;;;;107043;1255;24246;-84
2023/05/25 16:05:50;;;;;;;9.90;4.00;;;;;;;;;;106802;1276;22597;-83
2023/05/25 16:08:17;;;;;;;9.40;4.40;;;;;;;;;;106985;1261;22601;-84
2023/05/25 16:10:43;;;;;;;9.20;4.00;;;;;;;;;;106826;1276;24350;-85
2023/05/25 16:13:10;;;;;;;9.80;4.20;;;;;;;;;;106911;1276;22610;-83
2023/05/25 16:15:37;;;;;;;12.00;7.90;;;;;;;;;;106863;1269;22542;-80
2023/05/25 16:18:03;;;;;;;8.80;4.60;;;;;;;;;;106988;1276;22484;-80
2023/05/25 16:20:30;;;;;;;9.20;4.90;;;;;;;;;;106948;1276;24239;-81
2023/05/25 16:22:57;;;;;;;8.30;4.40;;;;;;;;;;106996;1276;22654;-78
2023/05/25 16:25:24;;;;;;;9.80;6.70;;;;;;;;;;106883;1260;24261;-80
2023/05/25 16:27:51;;;;;;;9.70;5.70;;;;;;;;;;107080;1275;22533;-79
2023/05/25 16:30:18;;;;;;;8.90;4.80;;;;;;;;;;106926;1275;25226;-81
2023/05/25 16:32:45;;;;;;;12.20;5.10;;;;;;;;;;106861;1254;22516;-83
2023/05/25 16:35:12;;;;;;;8.20;3.80;;;;;;;;;;106995;1275;22520;-83
2023/05/25 16:37:39;;;;;;;9.00;4.60;;;;;;;;;;106988;1276;25504;-77
2023/05/25 16:40:06;;;;;;;8.80;4.50;;;;;;;;;;106888;1276;22527;-82
2023/05/25 16:42:33;;;;;;;10.20;4.40;;;;;;;;;;106966;1276;22480;-86
2023/05/25 16:44:59;;;;;;;10.60;4.40;;;;;;;;;;106856;1261;24319;-78
2023/05/25 16:47:26;;;;;;;9.10;4.90;;;;;;;;;;106890;1275;24252;-84
2023/05/25 16:49:53;;;;;;;11.10;4.50;;;;;;;;;;107082;1275;23901;-83
2023/05/25 16:52:20;;;;;;;8.90;4.90;;;;;;;;;;107084;1275;24364;-82
2023/05/25 16:54:47;;;;;;;9.90;4.40;;;;;;;;;;106883;1260;24441;-81
2023/05/25 16:57:14;;;;;;;9.70;4.20;;;;;;;;;;107032;1254;24267;-83
2023/05/25 16:59:44;;;;;;;9.20;4.20;;;;;;;;;;106878;1275;22537;-81
2023/05/25 17:02:11;;;;;;;11.80;4.40;;;;;;;;;;107067;1275;22762;-79
2023/05/25 17:04:38;;;;;;;9.60;4.10;;;;;;;;;;106825;1264;22527;-81
2023/05/25 17:07:05;;;;;;;10.70;5.30;;;;;;;;;;106896;1275;22485;-82
2023/05/25 17:09:32;;;;;;;12.10;5.00;;;;;;;;;;106893;1275;23922;-82